createdAt,value
2023-05-02T00:00:25.032Z,12.14
2023-05-02T00:02:51.783Z,11.32
2023-05-02T00:05:18.543Z,13.02
2023-05-02T00:07:45.224Z,10.94
2023-05-02T00:10:11.822Z,11.31
2023-05-02T00:12:39.022Z,12.04
2023-05-02T00:15:06.373Z,12.75
2023-05-02T00:17:33.495Z,12.97
2023-05-02T00:20:00.536Z,12.22
2023-05-02T00:22:28.417Z,12.21
2023-05-02T00:24:58.607Z,12.42
2023-05-02T00:27:25.362Z,11.47
2023-05-02T00:29:52.492Z,11.90
2023-05-02T00:32:19.208Z,12.15
2023-05-02T00:34:45.955Z,11.53
2023-05-02T00:37:13.303Z,11.71
2023-05-02T00:39:39.910Z,12.41
2023-05-02T00:42:06.659Z,13.26
2023-05-02T00:44:33.371Z,11.45
2023-05-02T00:47:01.773Z,13.28
2023-05-02T00:49:28.601Z,12.61
2023-05-02T00:51:55.555Z,12.33
2023-05-02T00:54:22.229Z,12.13
2023-05-02T00:56:48.913Z,12.81
2023-05-02T00:59:15.566Z,12.30
2023-05-02T01:02:00.514Z,13.29
2023-05-02T01:04:58.938Z,12.93
2023-05-02T01:07:49.732Z,12.75
2023-05-02T01:10:46.032Z,13.10
2023-05-02T01:13:17.435Z,12.54
2023-05-02T01:15:45.367Z,11.97
2023-05-02T01:18:13.146Z,12.59
2023-05-02T01:20:42.250Z,12.40
2023-05-02T01:23:18.451Z,12.58
2023-05-02T01:25:51.169Z,13.12
2023-05-02T01:28:35.882Z,13.12
2023-05-02T01:31:03.763Z,12.22
2023-05-02T01:33:30.631Z,11.94
2023-05-02T01:35:57.256Z,12.90
2023-05-02T01:38:25.363Z,12.76
2023-05-02T01:40:51.935Z,12.60
2023-05-02T01:43:18.938Z,12.96
2023-05-02T01:45:46.007Z,12.11
2023-05-02T01:48:12.624Z,12.63
2023-05-02T01:50:39.642Z,11.89
2023-05-02T01:53:06.371Z,11.77
2023-05-02T01:55:33.599Z,11.74
2023-05-02T01:58:01.304Z,12.25
2023-05-02T02:00:27.937Z,11.30
2023-05-02T02:02:54.591Z,12.66
2023-05-02T02:05:21.277Z,11.84
2023-05-02T02:07:47.951Z,9.72
2023-05-02T02:10:14.628Z,11.48
2023-05-02T02:13:01.032Z,12.60
2023-05-02T02:15:28.610Z,12.31
2023-05-02T02:18:11.586Z,12.84
2023-05-02T02:20:38.276Z,11.93
2023-05-02T02:23:06.462Z,12.84
2023-05-02T02:25:33.740Z,12.86
2023-05-02T02:28:01.171Z,11.51
2023-05-02T02:30:27.940Z,11.57
2023-05-02T02:32:54.673Z,11.82
2023-05-02T02:35:21.403Z,12.05
2023-05-02T02:38:09.845Z,12.85
2023-05-02T02:40:53.277Z,12.81
2023-05-02T02:43:21.516Z,12.44
2023-05-02T02:46:12.543Z,12.72
2023-05-02T02:49:27.131Z,12.73
2023-05-02T02:51:58.592Z,12.06
2023-05-02T02:55:01.055Z,12.31
2023-05-02T02:57:36.965Z,11.80
2023-05-02T03:00:32.924Z,12.69
2023-05-02T03:02:59.619Z,11.57
2023-05-02T03:05:26.374Z,10.18
2023-05-02T03:07:53.385Z,10.92
2023-05-02T03:10:20.027Z,11.97
2023-05-02T03:12:46.900Z,11.32
2023-05-02T03:15:35.305Z,12.68
2023-05-02T03:18:02.003Z,10.66
2023-05-02T03:20:28.648Z,11.76
2023-05-02T03:22:55.295Z,12.60
2023-05-02T03:25:21.984Z,11.23
2023-05-02T03:27:48.622Z,11.09
2023-05-02T03:30:15.315Z,11.54
2023-05-02T03:32:42.010Z,11.51
2023-05-02T03:35:08.860Z,12.62
2023-05-02T03:37:35.545Z,11.31
2023-05-02T03:40:02.369Z,11.97
2023-05-02T03:42:29.224Z,10.89
2023-05-02T03:44:56.372Z,10.53
2023-05-02T03:47:23.068Z,11.25
2023-05-02T03:49:49.855Z,11.43
2023-05-02T03:52:16.581Z,10.03
2023-05-02T03:54:43.817Z,10.27
2023-05-02T03:57:10.560Z,9.83
2023-05-02T03:59:41.669Z,10.36
2023-05-02T04:02:08.949Z,10.12
2023-05-02T04:04:36.498Z,11.42
2023-05-02T04:07:03.352Z,10.50
2023-05-02T04:09:30.020Z,10.76
2023-05-02T04:11:56.732Z,9.98
2023-05-02T04:14:23.641Z,10.42
2023-05-02T04:16:50.908Z,10.78
2023-05-02T04:19:18.566Z,11.16
2023-05-02T04:21:45.395Z,11.43
2023-05-02T04:24:13.049Z,10.09
2023-05-02T04:26:39.704Z,11.20
2023-05-02T04:29:06.343Z,11.54
2023-05-02T04:31:33.056Z,11.33
2023-05-02T04:33:59.790Z,11.58
2023-05-02T04:36:28.385Z,11.52
2023-05-02T04:38:55.132Z,11.65
2023-05-02T04:41:21.770Z,12.03
2023-05-02T04:43:48.524Z,10.22
2023-05-02T04:46:16.362Z,10.81
2023-05-02T04:48:43.148Z,12.19
2023-05-02T04:51:10.549Z,11.81
2023-05-02T04:53:37.995Z,12.23
2023-05-02T04:56:04.870Z,12.15
2023-05-02T04:58:32.306Z,12.47
2023-05-02T05:00:58.942Z,12.07
2023-05-02T05:03:25.959Z,11.09
2023-05-02T05:05:52.684Z,12.77
2023-05-02T05:08:19.265Z,10.79
2023-05-02T05:10:45.856Z,13.21
2023-05-02T05:13:13.886Z,11.97
2023-05-02T05:15:40.859Z,12.31
2023-05-02T05:18:07.696Z,13.73
2023-05-02T05:20:34.535Z,13.72
2023-05-02T05:23:01.262Z,13.98
2023-05-02T05:25:28.000Z,13.25
2023-05-02T05:27:56.397Z,13.78
2023-05-02T05:30:23.218Z,16.29
2023-05-02T05:32:49.925Z,17.63
2023-05-02T05:35:16.670Z,18.17
2023-05-02T05:37:43.796Z,18.59
2023-05-02T05:40:10.666Z,19.18
2023-05-02T05:42:37.342Z,21.02
2023-05-02T05:45:04.242Z,20.95
2023-05-02T05:47:31.039Z,21.47
2023-05-02T05:49:57.917Z,21.80
2023-05-02T05:52:25.180Z,21.79
2023-05-02T05:54:57.952Z,22.48
2023-05-02T05:57:24.972Z,23.29
2023-05-02T05:59:52.075Z,25.25
2023-05-02T06:02:19.931Z,26.47
2023-05-02T06:04:47.156Z,27.49
2023-05-02T06:07:13.826Z,26.92
2023-05-02T06:09:40.587Z,27.78
2023-05-02T06:12:07.320Z,28.24
2023-05-02T06:14:33.981Z,29.39
2023-05-02T06:17:00.928Z,29.13
2023-05-02T06:19:27.625Z,29.65
2023-05-02T06:21:54.324Z,31.38
2023-05-02T06:24:20.956Z,31.53
2023-05-02T06:26:47.613Z,32.73
2023-05-02T06:29:14.262Z,33.12
2023-05-02T06:31:41.065Z,33.35
2023-05-02T06:34:08.062Z,33.08
2023-05-02T06:36:34.843Z,33.22
2023-05-02T06:39:01.595Z,32.50
2023-05-02T06:41:28.262Z,31.93
2023-05-02T06:43:54.913Z,30.81
2023-05-02T06:46:21.742Z,30.41
2023-05-02T06:53:20.958Z,28.11
2023-05-02T06:55:48.581Z,26.24
2023-05-02T06:58:15.249Z,25.28
2023-05-02T07:00:42.277Z,24.34
2023-05-02T07:03:11.262Z,22.62
2023-05-02T07:05:38.105Z,22.75
2023-05-02T07:08:05.068Z,22.36
2023-05-02T07:10:31.968Z,21.51
2023-05-02T07:12:58.580Z,22.17
2023-05-02T07:15:25.220Z,22.27
2023-05-02T07:17:51.956Z,22.51
2023-05-02T07:20:18.718Z,22.52
2023-05-02T07:22:45.483Z,21.38
2023-05-02T07:25:12.095Z,21.68
2023-05-02T07:27:38.703Z,21.71
2023-05-02T07:30:06.713Z,20.84
2023-05-02T07:32:33.529Z,21.81
2023-05-02T07:35:00.322Z,21.47
2023-05-02T07:37:27.179Z,21.44
2023-05-02T07:39:53.876Z,20.87
2023-05-02T07:42:20.494Z,20.89
2023-05-02T07:44:47.366Z,20.48
2023-05-02T07:47:13.983Z,20.49
2023-05-02T07:49:40.571Z,20.60
2023-05-02T07:52:07.283Z,20.26
2023-05-02T07:54:34.092Z,18.48
2023-05-02T07:57:03.029Z,20.38
2023-05-02T07:59:31.115Z,17.62
2023-05-02T08:01:57.900Z,19.16
2023-05-02T08:04:24.727Z,19.73
2023-05-02T08:06:51.925Z,19.21
2023-05-02T08:09:18.799Z,19.14
2023-05-02T08:11:45.643Z,19.27
2023-05-02T08:14:12.401Z,19.26
2023-05-02T08:16:39.145Z,19.50
2023-05-02T08:19:05.939Z,20.61
2023-05-02T08:21:32.845Z,20.82
2023-05-02T08:23:59.533Z,21.27
2023-05-02T08:26:26.995Z,20.56
2023-05-02T08:28:54.802Z,21.36
2023-05-02T08:31:21.553Z,20.81
2023-05-02T08:33:48.423Z,20.15
2023-05-02T08:36:16.097Z,21.63
2023-05-02T08:38:43.208Z,21.02
2023-05-02T08:41:14.262Z,21.51
2023-05-02T08:43:41.214Z,20.88
2023-05-02T08:46:08.519Z,21.56
2023-05-02T08:48:59.171Z,21.75
2023-05-02T08:51:25.902Z,20.64
2023-05-02T08:53:52.607Z,21.35
2023-05-02T08:56:19.627Z,21.24
2023-05-02T08:58:46.435Z,20.85
2023-05-02T09:01:17.654Z,20.30
2023-05-02T09:03:45.085Z,20.11
2023-05-02T09:06:18.799Z,21.60
2023-05-02T09:08:49.493Z,21.20
2023-05-02T09:11:16.616Z,20.73
2023-05-02T09:13:46.697Z,21.68
2023-05-02T09:16:14.030Z,21.31
2023-05-02T09:18:45.506Z,20.88
2023-05-02T09:21:21.125Z,21.61
2023-05-02T09:23:52.866Z,21.49
2023-05-02T09:26:21.191Z,20.94
2023-05-02T09:28:52.077Z,21.43
2023-05-02T09:33:52.944Z,21.22
2023-05-02T09:36:20.556Z,20.70
2023-05-02T09:38:49.541Z,19.64
2023-05-02T09:41:18.006Z,20.59
2023-05-02T09:43:45.505Z,20.40
2023-05-02T09:46:12.265Z,20.95
2023-05-02T09:48:51.845Z,20.86
2023-05-02T09:51:18.820Z,20.61
2023-05-02T09:53:45.738Z,20.64
2023-05-02T09:56:12.373Z,20.35
2023-05-02T09:58:39.067Z,20.07
2023-05-02T10:01:06.091Z,20.15
2023-05-02T10:03:32.708Z,20.00
2023-05-02T10:05:59.356Z,20.19
2023-05-02T10:08:27.382Z,19.83
2023-05-02T10:10:58.185Z,19.70
2023-05-02T10:13:27.439Z,20.05
2023-05-02T10:16:02.031Z,19.84
2023-05-02T10:18:43.777Z,20.24
2023-05-02T10:21:13.531Z,20.00
2023-05-02T10:23:44.243Z,19.83
2023-05-02T10:26:15.444Z,20.36
2023-05-02T10:28:42.602Z,20.54
2023-05-02T10:31:13.363Z,20.91
2023-05-02T10:33:40.196Z,21.04
2023-05-02T10:36:13.159Z,19.68
2023-05-02T10:38:40.157Z,20.03
2023-05-02T10:41:12.824Z,20.60
2023-05-02T10:43:39.498Z,21.23
2023-05-02T10:46:35.625Z,21.51
2023-05-02T10:49:08.746Z,21.56
2023-05-02T10:51:36.368Z,21.64
2023-05-02T10:54:21.776Z,21.50
2023-05-02T10:57:03.720Z,21.85
2023-05-02T10:59:31.964Z,21.22
2023-05-02T11:01:58.653Z,21.96
2023-05-02T11:04:25.484Z,21.21
2023-05-02T11:07:01.240Z,22.03
2023-05-02T11:09:28.014Z,22.05
2023-05-02T11:11:57.781Z,21.45
2023-05-02T11:14:33.418Z,22.07
2023-05-02T11:17:00.076Z,22.15
2023-05-02T11:19:31.564Z,22.13
2023-05-02T11:22:20.153Z,22.11
2023-05-02T11:24:50.205Z,21.62
2023-05-02T11:27:38.631Z,21.82
2023-05-02T11:30:09.710Z,18.99
2023-05-02T11:32:45.983Z,21.33
2023-05-02T11:35:26.801Z,21.03
2023-05-02T11:38:00.909Z,20.22
2023-05-02T11:40:28.232Z,18.62
2023-05-02T11:42:55.049Z,19.63
2023-05-02T11:45:21.925Z,18.00
2023-05-02T11:47:48.601Z,19.19
2023-05-02T11:50:15.553Z,18.68
2023-05-02T11:52:44.265Z,18.73
2023-05-02T11:55:13.352Z,17.64
2023-05-02T11:57:40.088Z,17.72
2023-05-02T12:00:08.094Z,18.31
2023-05-02T12:02:42.652Z,18.02
2023-05-02T12:05:13.763Z,18.23
2023-05-02T12:07:49.461Z,18.51
2023-05-02T12:10:16.361Z,18.44
2023-05-02T12:12:44.111Z,18.14
2023-05-02T12:15:11.728Z,17.70
2023-05-02T12:17:42.868Z,17.38
2023-05-02T12:20:10.443Z,16.11
2023-05-02T12:22:37.811Z,17.23
2023-05-02T12:25:07.977Z,17.06
2023-05-02T12:27:35.256Z,17.19
2023-05-02T12:30:02.964Z,16.78
2023-05-02T12:32:31.714Z,16.60
2023-05-02T12:34:59.027Z,16.38
2023-05-02T12:37:26.443Z,16.75
2023-05-02T12:39:53.633Z,16.33
2023-05-02T12:42:21.206Z,16.61
2023-05-02T12:44:48.841Z,16.23
2023-05-02T12:47:16.691Z,14.69
2023-05-02T12:49:53.651Z,15.68
2023-05-02T12:52:21.342Z,15.65
2023-05-02T12:54:48.614Z,15.00
2023-05-02T12:57:25.095Z,15.26
2023-05-02T12:59:53.493Z,15.45
2023-05-02T13:02:21.222Z,15.26
2023-05-02T13:04:47.894Z,15.58
2023-05-02T13:07:14.601Z,15.25
2023-05-02T13:09:41.359Z,15.45
2023-05-02T13:12:08.256Z,15.31
2023-05-02T13:14:35.001Z,14.63
2023-05-02T13:17:01.867Z,13.40
2023-05-02T13:19:31.475Z,14.30
2023-05-02T13:21:58.209Z,15.12
2023-05-02T13:24:24.921Z,12.75
2023-05-02T13:26:51.860Z,15.10
2023-05-02T13:29:18.612Z,15.39
2023-05-02T13:31:45.227Z,15.08
2023-05-02T13:34:11.874Z,15.30
2023-05-02T13:36:45.945Z,15.22
2023-05-02T13:39:13.831Z,15.05
2023-05-02T13:41:40.720Z,13.65
2023-05-02T13:44:07.752Z,15.57
2023-05-02T13:46:36.769Z,15.70
2023-05-02T13:49:04.221Z,15.34
2023-05-02T13:51:31.755Z,15.99
2023-05-02T13:53:58.991Z,15.14
2023-05-02T13:56:25.777Z,15.38
2023-05-02T13:58:52.490Z,14.43
2023-05-02T14:01:19.387Z,14.56
2023-05-02T14:03:46.359Z,16.02
2023-05-02T14:06:13.085Z,14.45
2023-05-02T14:08:39.771Z,15.57
2023-05-02T14:14:47.311Z,15.41
2023-05-02T14:17:14.021Z,15.76
2023-05-02T14:19:40.798Z,16.06
2023-05-02T14:22:07.703Z,16.13
2023-05-02T14:24:34.327Z,15.35
2023-05-02T14:27:01.579Z,14.24
2023-05-02T14:29:44.552Z,16.37
2023-05-02T14:32:11.163Z,16.39
2023-05-02T14:34:37.846Z,16.42
2023-05-02T14:37:04.531Z,16.31
2023-05-02T14:39:31.160Z,15.99
2023-05-02T14:41:57.811Z,15.30
2023-05-02T14:44:24.448Z,15.83
2023-05-02T14:46:54.576Z,16.41
2023-05-02T14:49:21.253Z,15.22
2023-05-02T14:51:48.908Z,14.98
2023-05-02T14:54:16.875Z,15.18
2023-05-02T14:56:43.819Z,15.73
2023-05-02T14:59:10.649Z,15.95
2023-05-02T15:01:37.740Z,15.67
2023-05-02T15:04:07.284Z,15.15
2023-05-02T15:06:36.469Z,15.31
2023-05-02T15:09:03.504Z,14.51
2023-05-02T15:11:30.222Z,15.71
2023-05-02T15:13:59.275Z,15.58
2023-05-02T15:16:27.402Z,14.04
2023-05-02T15:18:54.363Z,14.86
2023-05-02T15:21:21.370Z,14.48
2023-05-02T15:23:48.099Z,14.25
2023-05-02T15:26:14.817Z,14.45
2023-05-02T15:28:41.767Z,14.01
2023-05-02T15:31:08.510Z,14.33
2023-05-02T15:33:35.194Z,14.19
2023-05-02T15:36:02.567Z,14.59
2023-05-02T15:38:29.273Z,14.07
2023-05-02T15:40:59.597Z,15.06
2023-05-02T15:43:26.676Z,15.05
2023-05-02T15:45:54.125Z,15.02
2023-05-02T15:48:21.244Z,14.20
2023-05-02T15:50:48.404Z,14.60
2023-05-02T15:53:18.085Z,14.53
2023-05-02T15:55:45.925Z,14.32
2023-05-02T15:58:13.014Z,14.44
2023-05-02T16:00:39.714Z,14.29
2023-05-02T16:03:06.524Z,14.13
2023-05-02T16:05:33.426Z,14.14
2023-05-02T16:08:00.317Z,14.25
2023-05-02T16:10:28.484Z,14.28
2023-05-02T16:12:56.489Z,12.91
2023-05-02T16:15:23.244Z,13.45
2023-05-02T16:17:50.388Z,13.56
2023-05-02T16:20:17.773Z,13.20
2023-05-02T16:22:46.533Z,13.63
2023-05-02T16:25:16.658Z,13.12
2023-05-02T16:27:43.351Z,13.35
2023-05-02T16:30:10.369Z,13.08
2023-05-02T16:32:40.572Z,12.31
2023-05-02T16:35:10.893Z,13.36
2023-05-02T16:37:37.667Z,13.48
2023-05-02T16:40:05.951Z,13.30
2023-05-02T16:42:33.168Z,12.90
2023-05-02T16:44:59.796Z,12.90
2023-05-02T16:47:26.987Z,13.05
2023-05-02T16:49:57.376Z,13.27
2023-05-02T16:52:24.320Z,13.25
2023-05-02T16:54:50.994Z,12.09
2023-05-02T16:57:19.774Z,13.02
2023-05-02T16:59:52.452Z,13.17
2023-05-02T17:02:20.977Z,12.95
2023-05-02T17:04:48.386Z,12.73
2023-05-02T17:07:14.971Z,12.35
2023-05-02T17:09:41.902Z,13.27
2023-05-02T17:12:12.091Z,11.81
2023-05-02T17:14:41.268Z,12.39
2023-05-02T17:17:08.295Z,12.86
2023-05-02T17:19:36.181Z,12.25
2023-05-02T17:22:05.164Z,12.18
2023-05-02T17:24:32.127Z,12.52
2023-05-02T17:26:58.833Z,12.77
2023-05-02T17:29:25.824Z,12.35
2023-05-02T17:31:52.639Z,12.43
2023-05-02T17:34:19.241Z,11.58
2023-05-02T17:36:46.402Z,12.26
2023-05-02T17:39:13.635Z,11.64
2023-05-02T17:41:40.478Z,11.62
2023-05-02T17:44:07.192Z,10.55
2023-05-02T17:46:34.085Z,10.61
2023-05-02T17:49:01.197Z,12.30
2023-05-02T17:51:28.103Z,12.19
2023-05-02T17:54:23.681Z,12.51
2023-05-02T17:56:50.976Z,11.93
2023-05-02T17:59:19.012Z,12.10
2023-05-02T18:01:45.744Z,10.11
2023-05-02T18:04:14.155Z,11.83
2023-05-02T18:06:40.948Z,11.88
2023-05-02T18:09:07.621Z,10.94
2023-05-02T18:11:34.894Z,11.64
2023-05-02T18:14:04.139Z,11.35
2023-05-02T18:16:32.175Z,10.85
2023-05-02T18:19:01.262Z,11.44
2023-05-02T18:21:28.271Z,10.78
2023-05-02T18:23:56.914Z,11.89
2023-05-02T18:26:23.567Z,11.89
2023-05-02T18:28:53.406Z,11.58
2023-05-02T18:31:20.730Z,12.17
2023-05-02T18:33:47.696Z,11.88
2023-05-02T18:36:15.703Z,11.07
2023-05-02T18:38:42.337Z,11.11
2023-05-02T18:41:09.441Z,11.70
2023-05-02T18:43:36.378Z,11.63
2023-05-02T18:46:03.170Z,11.99
2023-05-02T18:48:29.909Z,11.24
2023-05-02T18:50:58.255Z,9.72
2023-05-02T18:53:26.443Z,10.24
2023-05-02T18:55:53.963Z,9.70
2023-05-02T18:58:21.670Z,10.97
2023-05-02T19:00:48.632Z,10.54
2023-05-02T19:03:15.477Z,10.70
2023-05-02T19:05:42.757Z,11.18
2023-05-02T19:08:09.668Z,10.45
2023-05-02T19:10:36.848Z,11.72
2023-05-02T19:13:03.523Z,9.15
2023-05-02T19:15:30.256Z,10.09
2023-05-02T19:17:57.211Z,10.57
2023-05-02T19:20:24.097Z,9.76
2023-05-02T19:22:54.110Z,10.30
2023-05-02T19:25:24.493Z,10.37
2023-05-02T19:27:52.428Z,10.58
2023-05-02T19:30:20.848Z,10.66
2023-05-02T19:32:48.019Z,11.37
2023-05-02T19:35:15.659Z,9.80
2023-05-02T19:37:44.042Z,11.54
2023-05-02T19:40:11.356Z,10.22
2023-05-02T19:42:39.363Z,10.32
2023-05-02T19:45:06.646Z,9.73
2023-05-02T19:47:33.711Z,10.47
2023-05-02T19:50:00.801Z,10.07
2023-05-02T19:52:27.500Z,10.02
2023-05-02T19:54:54.174Z,10.59
2023-05-02T19:57:20.992Z,11.01
2023-05-02T19:59:47.642Z,11.54
2023-05-02T20:02:14.355Z,10.14
2023-05-02T20:04:41.055Z,10.14
2023-05-02T20:07:07.759Z,10.48
2023-05-02T20:09:34.522Z,11.33
2023-05-02T20:12:01.255Z,10.52
2023-05-02T20:14:27.978Z,11.25
2023-05-02T20:17:01.292Z,10.44
2023-05-02T20:19:29.497Z,10.29
2023-05-02T20:21:56.361Z,11.05
2023-05-02T20:24:22.998Z,9.56
2023-05-02T20:26:49.708Z,10.07
2023-05-02T20:29:16.537Z,9.82
2023-05-02T20:31:43.359Z,10.57
2023-05-02T20:34:10.147Z,10.97
2023-05-02T20:36:37.235Z,9.95
2023-05-02T20:39:05.523Z,10.54
2023-05-02T20:41:32.395Z,11.58
2023-05-02T20:44:01.334Z,9.49
2023-05-02T20:46:28.015Z,10.44
2023-05-02T20:48:54.831Z,11.47
2023-05-02T20:51:21.685Z,10.17
2023-05-02T20:53:49.058Z,10.17
2023-05-02T20:56:15.850Z,9.53
2023-05-02T20:58:44.702Z,11.07
2023-05-02T21:01:12.199Z,9.88
2023-05-02T21:03:41.195Z,9.92
2023-05-02T21:06:08.037Z,10.11
2023-05-02T21:08:34.673Z,10.24
2023-05-02T21:11:01.341Z,10.54
2023-05-02T21:13:28.010Z,10.66
2023-05-02T21:15:54.728Z,10.38
2023-05-02T21:18:21.440Z,9.19
2023-05-02T21:20:51.222Z,8.58
2023-05-02T21:23:18.522Z,9.96
2023-05-02T21:25:45.186Z,9.87
2023-05-02T21:28:12.525Z,10.55
2023-05-02T21:30:39.151Z,10.56
2023-05-02T21:33:05.901Z,10.55
2023-05-02T21:35:34.156Z,10.73
2023-05-02T21:38:01.616Z,10.93
2023-05-02T21:40:29.467Z,9.49
2023-05-02T21:42:56.209Z,10.12
2023-05-02T21:49:09.757Z,11.01
2023-05-02T21:51:38.701Z,9.96
2023-05-02T21:54:05.434Z,10.51
2023-05-02T21:56:32.251Z,9.68
2023-05-02T21:58:59.098Z,10.65
2023-05-02T22:01:26.006Z,9.40
2023-05-02T22:03:52.677Z,8.52
2023-05-02T22:06:19.356Z,9.96
2023-05-02T22:08:46.078Z,9.82
2023-05-02T22:11:12.733Z,10.77
2023-05-02T22:13:39.356Z,10.05
2023-05-02T22:16:06.831Z,9.37
2023-05-02T22:18:33.727Z,8.93
2023-05-02T22:21:01.596Z,10.55
2023-05-02T22:23:28.297Z,9.90
2023-05-02T22:25:55.038Z,10.98
2023-05-02T22:28:21.706Z,9.90
2023-05-02T22:30:48.340Z,10.23
2023-05-02T22:33:15.118Z,10.52
2023-05-02T22:35:42.166Z,9.67
2023-05-02T22:38:11.624Z,10.93
2023-05-02T22:40:38.307Z,10.10
2023-05-02T22:43:05.179Z,10.35
2023-05-02T22:45:32.036Z,9.55
2023-05-02T22:47:58.976Z,10.05
2023-05-02T22:50:27.609Z,10.43
2023-05-02T22:52:57.453Z,10.89
2023-05-02T22:55:24.258Z,8.58
2023-05-02T22:57:52.095Z,9.47
2023-05-02T23:00:18.857Z,10.63
2023-05-02T23:02:45.889Z,9.27
2023-05-02T23:05:12.681Z,9.33
2023-05-02T23:07:39.336Z,9.88
2023-05-02T23:10:06.801Z,9.56
2023-05-02T23:12:33.496Z,9.01
2023-05-02T23:15:00.361Z,10.40
2023-05-02T23:17:27.155Z,10.26
2023-05-02T23:19:53.862Z,10.40
2023-05-02T23:22:20.520Z,10.11
2023-05-02T23:24:47.849Z,9.72
2023-05-02T23:27:14.575Z,10.07
2023-05-02T23:29:41.256Z,9.72
2023-05-02T23:32:08.162Z,10.61
2023-05-02T23:34:36.545Z,9.33
2023-05-02T23:37:03.299Z,9.38
2023-05-02T23:39:29.929Z,10.21
2023-05-02T23:41:56.788Z,8.45
2023-05-02T23:44:23.487Z,9.56
2023-05-02T23:46:50.532Z,9.27
2023-05-02T23:49:17.230Z,8.35
2023-05-02T23:51:43.944Z,10.39
2023-05-02T23:54:10.964Z,8.67
2023-05-02T23:56:37.611Z,9.06
2023-05-02T23:59:04.759Z,9.89
